Main page
METAR-TAF:

METAR-TAF

Airports :

Crystal Airport

Minneapolis / Crystal, Minnesota, United States

latitude: 45-03-45N, longitude: 093-21-03W, elevation: 866 ft

Current weather observation

The report was made 38 minutes ago, at 15:53 UTC
Wind 9 mph from the West/Northwest
Temperature 37°F
Humidity 41%
Pressure 30.12 in. Hg
Visibility: 10 miles
Overcast at a height of 5500 ft

METAR: KMIC 201553Z 30008KT 10SM OVC055 03/M09 A3012 RMK AO2 SLP208 T00281094

Time: 11:31 (16:31 UTC)


TAF: missing

Weather observations and forecasts of more than 4000 airports (METAR and TAF reports).

The available stations are represented by yellow and red dots on the map.

Hover mouse over dot to see the name of the station.

Then click to see weather observations and forecasts.

To change the map : click on the green buttons with a black cross to zoom in, on the green button with a dash to zoom out, or on the green arrows for adjacent maps.


METAR-TAF: